createdAt,value
2018-09-03T00:01:42.721Z,18.70
2018-09-03T00:04:11.181Z,18.69
2018-09-03T00:06:39.720Z,18.65
2018-09-03T00:09:09.803Z,18.63
2018-09-03T00:11:38.234Z,18.61
2018-09-03T00:14:07.126Z,18.58
2018-09-03T00:16:35.779Z,18.59
2018-09-03T00:19:04.318Z,18.54
2018-09-03T00:21:32.996Z,18.52
2018-09-03T00:24:01.577Z,18.49
2018-09-03T00:26:30.051Z,18.47
2018-09-03T00:28:58.533Z,18.46
2018-09-03T00:31:32.209Z,18.45
2018-09-03T00:34:06.014Z,18.45
2018-09-03T00:36:39.756Z,18.43
2018-09-03T00:39:13.563Z,18.42
2018-09-03T00:41:47.549Z,18.41
2018-09-03T00:44:21.088Z,18.37
2018-09-03T00:46:54.802Z,18.30
2018-09-03T00:49:23.361Z,18.26
2018-09-03T00:51:51.812Z,18.23
2018-09-03T00:54:20.312Z,18.18
2018-09-03T00:56:48.821Z,18.14
2018-09-03T00:59:17.341Z,18.11
2018-09-03T01:01:45.887Z,18.12
2018-09-03T01:04:14.331Z,18.11
2018-09-03T01:06:45.479Z,18.09
2018-09-03T01:09:33.321Z,18.07
2018-09-03T01:12:01.818Z,18.02
2018-09-03T01:14:30.709Z,18.03
2018-09-03T01:16:59.285Z,18.04
2018-09-03T01:19:29.871Z,18.03
2018-09-03T01:21:58.394Z,18.04
2018-09-03T01:24:26.871Z,18.04
2018-09-03T01:26:55.644Z,18.05
2018-09-03T01:29:24.176Z,18.05
2018-09-03T01:31:59.515Z,18.05
2018-09-03T01:34:28.080Z,18.03
2018-09-03T01:36:56.508Z,18.01
2018-09-03T01:39:24.953Z,17.99
2018-09-03T01:41:53.421Z,17.97
2018-09-03T01:44:21.893Z,17.96
2018-09-03T01:46:50.384Z,17.96
2018-09-03T01:49:18.855Z,17.94
2018-09-03T01:51:47.394Z,17.94
2018-09-03T01:54:26.677Z,17.94
2018-09-03T01:56:55.162Z,17.91
2018-09-03T01:59:24.769Z,17.92
2018-09-03T02:01:53.223Z,17.91
2018-09-03T02:04:21.680Z,17.91
2018-09-03T02:06:50.117Z,17.91
2018-09-03T02:09:18.580Z,17.92
2018-09-03T02:11:47.098Z,17.91
2018-09-03T02:14:15.575Z,17.89
2018-09-03T02:16:44.265Z,17.89
2018-09-03T02:19:12.733Z,17.88
2018-09-03T02:21:41.277Z,17.88
2018-09-03T02:24:09.800Z,17.86
2018-09-03T02:26:38.316Z,17.86
2018-09-03T02:29:12.368Z,17.84
2018-09-03T02:31:48.354Z,17.83
2018-09-03T02:34:16.947Z,17.82
2018-09-03T02:36:45.442Z,17.81
2018-09-03T02:39:14.067Z,17.82
2018-09-03T02:41:42.628Z,17.80
2018-09-03T02:44:11.162Z,17.79
2018-09-03T02:46:39.646Z,17.80
2018-09-03T02:49:08.247Z,17.78
2018-09-03T02:51:36.723Z,17.77
2018-09-03T02:54:05.732Z,17.78
2018-09-03T02:56:34.192Z,17.75
2018-09-03T02:59:02.845Z,17.75
2018-09-03T03:01:31.285Z,17.76
2018-09-03T03:03:59.733Z,17.76
2018-09-03T03:06:28.314Z,17.75
2018-09-03T03:08:56.912Z,17.75
2018-09-03T03:11:25.343Z,17.72
2018-09-03T03:13:53.876Z,17.72
2018-09-03T03:16:22.387Z,17.71
2018-09-03T03:18:50.937Z,17.68
2018-09-03T03:21:19.421Z,17.62
2018-09-03T03:23:47.911Z,17.60
2018-09-03T03:26:16.379Z,17.58
2018-09-03T03:28:44.824Z,17.58
2018-09-03T03:31:13.294Z,17.59
2018-09-03T03:33:41.816Z,17.60
2018-09-03T03:36:10.511Z,17.57
2018-09-03T03:38:38.992Z,17.57
2018-09-03T03:41:07.474Z,17.47
2018-09-03T03:43:58.606Z,17.44
2018-09-03T03:46:27.059Z,17.47
2018-09-03T03:48:55.605Z,17.47
2018-09-03T03:51:37.256Z,17.47
2018-09-03T03:54:45.015Z,17.46
2018-09-03T03:57:13.625Z,17.44
2018-09-03T03:59:42.152Z,17.45
2018-09-03T04:02:10.763Z,17.46
2018-09-03T04:05:27.277Z,17.47
2018-09-03T04:07:55.840Z,17.40
2018-09-03T04:10:24.272Z,17.40
2018-09-03T04:12:58.128Z,17.38
2018-09-03T04:15:26.765Z,17.37
2018-09-03T04:17:55.350Z,17.39
2018-09-03T04:20:23.812Z,17.39
2018-09-03T04:22:52.300Z,17.39
2018-09-03T04:25:20.799Z,17.41
2018-09-03T04:27:49.254Z,17.40
2018-09-03T04:30:18.005Z,17.41
2018-09-03T04:32:46.548Z,17.36
2018-09-03T04:35:15.029Z,17.33
2018-09-03T04:37:43.514Z,17.31
2018-09-03T04:40:12.202Z,17.26
2018-09-03T04:42:40.748Z,17.28
2018-09-03T04:45:09.202Z,17.30
2018-09-03T04:47:37.758Z,17.33
2018-09-03T04:50:06.365Z,17.32
2018-09-03T04:52:35.051Z,17.34
2018-09-03T04:55:03.641Z,17.33
2018-09-03T04:57:32.189Z,17.35
2018-09-03T05:00:00.680Z,17.33
2018-09-03T05:02:29.264Z,17.32
2018-09-03T05:04:57.745Z,17.33
2018-09-03T05:07:26.341Z,17.33
2018-09-03T05:10:02.321Z,17.32
2018-09-03T05:12:55.480Z,17.33
2018-09-03T05:15:24.028Z,17.30
2018-09-03T05:17:53.148Z,17.31
2018-09-03T05:20:21.691Z,17.30
2018-09-03T05:22:50.185Z,17.31
2018-09-03T05:25:18.633Z,17.28
2018-09-03T05:27:47.074Z,17.29
2018-09-03T05:30:15.630Z,17.29
2018-09-03T05:32:44.107Z,17.28
2018-09-03T05:35:13.332Z,17.25
2018-09-03T05:37:41.814Z,17.25
2018-09-03T05:40:10.602Z,17.28
2018-09-03T05:42:48.587Z,17.31
2018-09-03T05:45:17.075Z,17.33
2018-09-03T05:47:46.663Z,17.36
2018-09-03T05:50:15.192Z,17.35
2018-09-03T05:52:43.628Z,17.36
2018-09-03T05:55:12.401Z,17.40
2018-09-03T05:57:40.911Z,17.46
2018-09-03T06:00:09.738Z,17.55
2018-09-03T06:02:38.297Z,17.57
2018-09-03T06:05:07.000Z,17.60
2018-09-03T06:07:35.622Z,17.63
2018-09-03T06:10:04.174Z,17.66
2018-09-03T06:12:32.658Z,17.71
2018-09-03T06:15:01.295Z,17.79
2018-09-03T06:17:33.585Z,17.84
2018-09-03T06:20:02.069Z,17.91
2018-09-03T06:22:30.649Z,17.96
2018-09-03T06:24:59.420Z,17.96
2018-09-03T06:27:27.947Z,18.02
2018-09-03T06:29:56.390Z,18.07
2018-09-03T06:32:25.281Z,18.09
2018-09-03T06:35:00.010Z,18.14
2018-09-03T06:37:28.549Z,18.16
2018-09-03T06:39:57.086Z,18.22
2018-09-03T06:42:26.496Z,18.33
2018-09-03T06:44:55.041Z,18.35
2018-09-03T06:47:23.595Z,18.43
2018-09-03T06:49:52.500Z,18.51
2018-09-03T06:52:21.069Z,18.54
2018-09-03T06:54:49.588Z,18.55
2018-09-03T06:57:23.231Z,18.61
2018-09-03T07:00:20.115Z,18.70
2018-09-03T07:02:48.691Z,18.80
2018-09-03T07:05:17.262Z,18.83
2018-09-03T07:07:45.840Z,18.84
2018-09-03T07:10:14.394Z,18.94
2018-09-03T07:12:43.003Z,19.02
2018-09-03T07:15:11.568Z,19.07
2018-09-03T07:17:40.578Z,19.13
2018-09-03T07:20:27.364Z,19.22
2018-09-03T07:22:56.119Z,19.16
2018-09-03T07:25:24.641Z,19.21
2018-09-03T07:27:53.113Z,19.25
2018-09-03T07:30:21.636Z,19.29
2018-09-03T07:32:50.185Z,19.23
2018-09-03T07:35:18.657Z,19.16
2018-09-03T07:37:47.240Z,19.10
2018-09-03T07:40:15.752Z,19.06
2018-09-03T07:42:44.213Z,19.03
2018-09-03T07:45:12.749Z,19.04
2018-09-03T07:47:42.067Z,19.06
2018-09-03T07:50:10.509Z,19.00
2018-09-03T07:52:39.080Z,18.98
2018-09-03T07:55:15.246Z,19.02
2018-09-03T07:57:43.805Z,19.06
2018-09-03T08:00:13.983Z,19.12
2018-09-03T08:02:42.725Z,19.11
2018-09-03T08:05:11.191Z,19.10
2018-09-03T08:07:39.686Z,19.07
2018-09-03T08:10:16.890Z,19.04
2018-09-03T08:12:45.520Z,19.05
2018-09-03T08:15:14.038Z,19.08
2018-09-03T08:17:42.669Z,19.14
2018-09-03T08:20:11.131Z,19.20
2018-09-03T08:22:39.705Z,19.21
2018-09-03T08:25:08.200Z,19.19
2018-09-03T08:27:36.756Z,19.17
2018-09-03T08:30:06.293Z,19.13
2018-09-03T08:32:34.868Z,19.11
2018-09-03T08:35:03.456Z,19.07
2018-09-03T08:37:32.481Z,19.04
2018-09-03T08:40:01.004Z,19.02
2018-09-03T08:42:54.509Z,19.10
2018-09-03T08:45:22.959Z,19.20
2018-09-03T08:47:58.937Z,19.18
2018-09-03T08:50:27.559Z,19.05
2018-09-03T08:52:55.985Z,18.86
2018-09-03T08:55:24.509Z,18.66
2018-09-03T08:57:53.042Z,18.52
2018-09-03T09:00:21.545Z,18.46
2018-09-03T09:02:50.262Z,18.43
2018-09-03T09:05:18.774Z,18.42
2018-09-03T09:07:47.271Z,18.44
2018-09-03T09:10:15.819Z,18.46
2018-09-03T09:12:44.341Z,18.45
2018-09-03T09:15:12.837Z,18.48
2018-09-03T09:17:41.448Z,18.49
2018-09-03T09:20:09.994Z,18.53
2018-09-03T09:22:38.512Z,18.59
2018-09-03T09:25:07.146Z,18.61
2018-09-03T09:27:35.691Z,18.67
2018-09-03T09:30:05.261Z,18.76
2018-09-03T09:32:33.835Z,18.79
2018-09-03T09:35:02.340Z,18.81
2018-09-03T09:37:31.171Z,18.85
2018-09-03T09:39:59.692Z,18.85
2018-09-03T09:42:28.308Z,18.80
2018-09-03T09:44:56.866Z,18.77
2018-09-03T09:47:25.970Z,18.78
2018-09-03T09:49:54.627Z,18.80
2018-09-03T09:52:23.121Z,18.83
2018-09-03T09:54:51.615Z,18.89
2018-09-03T09:57:20.017Z,18.92
2018-09-03T09:59:48.564Z,18.96
2018-09-03T10:02:17.261Z,18.97
2018-09-03T10:04:45.722Z,18.94
2018-09-03T10:07:14.462Z,18.94
2018-09-03T10:09:42.897Z,18.98
2018-09-03T10:12:11.493Z,19.10
2018-09-03T10:14:40.135Z,19.17
2018-09-03T10:17:08.642Z,19.25
2018-09-03T10:19:37.228Z,19.38
2018-09-03T10:22:05.838Z,19.61
2018-09-03T10:24:34.398Z,19.85
2018-09-03T10:27:02.857Z,19.97
2018-09-03T10:29:31.470Z,19.94
2018-09-03T10:31:59.964Z,20.03
2018-09-03T10:34:37.712Z,20.05
2018-09-03T10:37:06.960Z,19.92
2018-09-03T10:39:35.518Z,19.85
2018-09-03T10:42:04.127Z,19.78
2018-09-03T10:44:32.874Z,19.80
2018-09-03T10:47:01.557Z,19.86
2018-09-03T10:49:30.419Z,19.90
2018-09-03T10:51:58.972Z,20.01
2018-09-03T10:54:27.548Z,20.14
2018-09-03T10:56:56.029Z,20.26
2018-09-03T10:59:24.566Z,20.27
2018-09-03T11:01:53.102Z,20.29
2018-09-03T11:04:21.604Z,20.31
2018-09-03T11:06:50.155Z,20.28
2018-09-03T11:09:18.693Z,20.35
2018-09-03T11:11:47.311Z,20.42
2018-09-03T11:14:15.801Z,20.47
2018-09-03T11:16:44.316Z,20.41
2018-09-03T11:19:12.799Z,20.42
2018-09-03T11:21:41.494Z,20.52
2018-09-03T11:24:17.001Z,20.53
2018-09-03T11:26:45.592Z,20.58
2018-09-03T11:29:14.218Z,20.66
2018-09-03T11:31:42.883Z,20.71
2018-09-03T11:34:11.326Z,20.80
2018-09-03T11:36:39.837Z,20.91
2018-09-03T11:39:10.908Z,20.98
2018-09-03T11:41:39.480Z,21.18
2018-09-03T11:44:08.247Z,21.35
2018-09-03T11:46:37.062Z,21.40
2018-09-03T11:49:06.234Z,21.33
2018-09-03T11:51:34.821Z,21.39
2018-09-03T11:54:03.468Z,21.37
2018-09-03T11:56:32.034Z,21.51
2018-09-03T11:59:00.586Z,21.71
2018-09-03T12:01:29.055Z,21.73
2018-09-03T12:03:57.740Z,22.14
2018-09-03T12:06:26.274Z,22.46
2018-09-03T12:08:54.837Z,22.66
2018-09-03T12:11:23.377Z,22.66
2018-09-03T12:13:51.825Z,22.80
2018-09-03T12:16:23.729Z,22.91
2018-09-03T12:18:53.487Z,23.09
2018-09-03T12:21:22.024Z,23.33
2018-09-03T12:24:01.398Z,23.47
2018-09-03T12:26:29.945Z,23.58
2018-09-03T12:28:58.431Z,23.65
2018-09-03T12:31:27.073Z,23.67
2018-09-03T12:33:55.648Z,23.71
2018-09-03T12:36:24.098Z,23.81
2018-09-03T12:38:52.650Z,23.87
2018-09-03T12:41:21.170Z,23.85
2018-09-03T12:43:49.822Z,23.65
2018-09-03T12:46:18.383Z,23.50
2018-09-03T12:48:46.899Z,23.51
2018-09-03T12:51:21.340Z,23.48
2018-09-03T12:53:49.942Z,23.46
2018-09-03T12:56:18.590Z,23.38
2018-09-03T12:58:47.215Z,23.45
2018-09-03T13:01:15.666Z,23.50
2018-09-03T13:03:44.237Z,23.43
2018-09-03T13:06:12.733Z,23.34
2018-09-03T13:08:41.546Z,23.26
2018-09-03T13:11:10.092Z,23.18
2018-09-03T13:13:38.771Z,23.19
2018-09-03T13:16:07.487Z,23.08
2018-09-03T13:18:36.049Z,22.91
2018-09-03T13:21:04.764Z,22.99
2018-09-03T13:23:33.306Z,23.09
2018-09-03T13:26:01.798Z,23.16
2018-09-03T13:28:30.260Z,23.19
2018-09-03T13:30:58.928Z,23.29
2018-09-03T13:33:27.621Z,23.55
2018-09-03T13:36:07.280Z,23.68
2018-09-03T13:38:45.234Z,23.76
2018-09-03T13:41:13.829Z,23.78
2018-09-03T13:43:42.417Z,24.01
2018-09-03T13:46:10.951Z,24.17
2018-09-03T13:48:39.541Z,24.22
2018-09-03T13:51:08.124Z,24.03
2018-09-03T13:53:36.800Z,23.80
2018-09-03T13:56:05.443Z,23.74
2018-09-03T13:58:34.087Z,23.83
2018-09-03T14:01:02.662Z,23.99
2018-09-03T14:03:31.252Z,24.06
2018-09-03T14:05:59.890Z,24.30
2018-09-03T14:08:28.461Z,24.73
2018-09-03T14:10:56.920Z,25.18
2018-09-03T14:13:25.520Z,25.46
2018-09-03T14:15:54.093Z,25.75
2018-09-03T14:18:22.722Z,25.76
2018-09-03T14:20:51.292Z,25.55
2018-09-03T14:23:19.844Z,25.15
2018-09-03T14:25:48.404Z,24.94
2018-09-03T14:28:16.873Z,24.86
2018-09-03T14:30:55.895Z,24.80
2018-09-03T14:33:24.596Z,24.87
2018-09-03T14:35:53.150Z,25.00
2018-09-03T14:38:21.606Z,25.14
2018-09-03T14:40:50.075Z,24.99
2018-09-03T14:43:18.717Z,24.98
2018-09-03T14:45:47.313Z,24.91
2018-09-03T14:48:15.779Z,24.73
2018-09-03T14:50:44.330Z,24.76
2018-09-03T14:53:12.891Z,24.91
2018-09-03T14:55:41.464Z,25.12
2018-09-03T14:58:10.022Z,25.44
2018-09-03T15:00:38.585Z,25.70
2018-09-03T15:03:07.175Z,25.91
2018-09-03T15:05:35.809Z,25.87
2018-09-03T15:08:04.732Z,25.83
2018-09-03T15:10:33.231Z,25.57
2018-09-03T15:13:01.736Z,25.26
2018-09-03T15:15:30.216Z,25.11
2018-09-03T15:17:58.714Z,25.12
2018-09-03T15:20:27.221Z,25.28
2018-09-03T15:22:55.765Z,25.04
2018-09-03T15:25:24.353Z,24.81
2018-09-03T15:27:52.815Z,24.59
2018-09-03T15:30:21.496Z,24.39
2018-09-03T15:32:49.947Z,24.29
2018-09-03T15:35:18.546Z,24.16
2018-09-03T15:37:47.064Z,24.08
2018-09-03T15:40:15.654Z,23.97
2018-09-03T15:42:44.227Z,23.84
2018-09-03T15:45:12.723Z,23.78
2018-09-03T15:47:41.259Z,23.70
2018-09-03T15:50:09.763Z,23.59
2018-09-03T15:52:38.230Z,23.51
2018-09-03T15:55:07.090Z,23.47
2018-09-03T15:57:35.598Z,23.48
2018-09-03T16:00:04.334Z,23.47
2018-09-03T16:02:32.891Z,23.45
2018-09-03T16:05:01.634Z,23.41
2018-09-03T16:07:30.183Z,23.34
2018-09-03T16:09:58.793Z,23.28
2018-09-03T16:12:27.675Z,23.27
2018-09-03T16:15:11.497Z,23.27
2018-09-03T16:17:40.055Z,23.25
2018-09-03T16:20:08.638Z,23.21
2018-09-03T16:22:37.089Z,23.18
2018-09-03T16:25:05.872Z,23.12
2018-09-03T16:27:34.488Z,23.12
2018-09-03T16:30:02.987Z,23.05
2018-09-03T16:32:31.492Z,22.99
2018-09-03T16:35:00.143Z,22.98
2018-09-03T16:37:28.729Z,23.03
2018-09-03T16:39:57.406Z,23.03
2018-09-03T16:42:25.899Z,23.00
2018-09-03T16:44:54.516Z,22.94
2018-09-03T16:47:23.064Z,22.90
2018-09-03T16:49:51.570Z,22.84
2018-09-03T16:52:20.247Z,22.80
2018-09-03T16:54:48.855Z,22.74
2018-09-03T16:57:17.393Z,22.65
2018-09-03T16:59:45.983Z,22.58
2018-09-03T17:02:14.609Z,22.47
2018-09-03T17:04:43.254Z,22.39
2018-09-03T17:07:11.720Z,22.28
2018-09-03T17:09:40.268Z,22.21
2018-09-03T17:12:08.889Z,22.11
2018-09-03T17:14:37.397Z,22.02
2018-09-03T17:17:06.209Z,21.95
2018-09-03T17:19:34.773Z,21.88
2018-09-03T17:25:33.045Z,21.65
2018-09-03T17:28:01.572Z,21.62
2018-09-03T17:30:30.038Z,21.61
2018-09-03T17:32:58.761Z,21.59
2018-09-03T17:35:27.642Z,21.56
2018-09-03T17:37:56.173Z,21.55
2018-09-03T17:40:24.781Z,21.52
2018-09-03T17:42:53.451Z,21.50
2018-09-03T17:45:22.009Z,21.47
2018-09-03T17:47:50.599Z,21.43
2018-09-03T17:50:19.089Z,21.41
2018-09-03T17:52:49.316Z,21.37
2018-09-03T17:55:17.804Z,21.34
2018-09-03T17:57:46.262Z,21.31
2018-09-03T18:00:39.063Z,21.28
2018-09-03T18:03:07.694Z,21.21
2018-09-03T18:05:37.260Z,21.19
2018-09-03T18:08:06.155Z,21.15
2018-09-03T18:10:35.469Z,21.11
2018-09-03T18:13:04.278Z,21.07
2018-09-03T18:15:32.846Z,21.02
2018-09-03T18:18:06.220Z,20.99
2018-09-03T18:20:34.691Z,20.94
2018-09-03T18:23:03.676Z,20.89
2018-09-03T18:26:05.141Z,20.84
2018-09-03T18:28:33.821Z,20.77
2018-09-03T18:31:02.386Z,20.76
2018-09-03T18:33:31.183Z,20.71
2018-09-03T18:35:59.920Z,20.69
2018-09-03T18:38:28.672Z,20.63
2018-09-03T18:40:57.282Z,20.58
2018-09-03T18:43:26.507Z,20.54
2018-09-03T18:45:55.867Z,20.50
2018-09-03T18:48:24.549Z,20.45
2018-09-03T18:50:53.511Z,20.43
2018-09-03T18:53:22.274Z,20.43
2018-09-03T18:55:51.176Z,20.41
2018-09-03T18:58:20.433Z,20.38
2018-09-03T19:00:49.384Z,20.33
2018-09-03T19:03:18.584Z,20.32
2018-09-03T19:05:47.195Z,20.31
2018-09-03T19:08:16.166Z,20.30
2018-09-03T19:10:44.877Z,20.27
2018-09-03T19:13:13.825Z,20.26
2018-09-03T19:15:42.571Z,20.25
2018-09-03T19:18:11.226Z,20.23
2018-09-03T19:20:40.105Z,20.21
2018-09-03T19:23:09.308Z,20.20
2018-09-03T19:25:37.944Z,20.20
2018-09-03T19:28:06.819Z,20.17
2018-09-03T19:30:35.369Z,20.14
2018-09-03T19:33:03.994Z,20.11
2018-09-03T19:35:33.031Z,20.09
2018-09-03T19:38:01.777Z,20.05
2018-09-03T19:40:30.352Z,20.01
2018-09-03T19:42:58.972Z,20.00
2018-09-03T19:45:27.542Z,19.95
2018-09-03T19:47:56.996Z,19.91
2018-09-03T19:50:25.603Z,19.88
2018-09-03T19:52:54.323Z,19.84
2018-09-03T19:55:23.105Z,19.80
2018-09-03T19:57:51.750Z,19.74
2018-09-03T20:00:37.467Z,19.66
2018-09-03T20:03:06.288Z,19.61
2018-09-03T20:05:34.911Z,19.54
2018-09-03T20:08:03.590Z,19.45
2018-09-03T20:10:32.148Z,19.41
2018-09-03T20:13:00.934Z,19.38
2018-09-03T20:15:29.650Z,19.34
2018-09-03T20:17:58.413Z,19.30
2018-09-03T20:23:50.004Z,19.15
2018-09-03T20:26:18.745Z,19.14
2018-09-03T20:28:47.385Z,19.10
2018-09-03T20:31:16.099Z,19.05
2018-09-03T20:33:44.820Z,19.04
2018-09-03T20:36:13.547Z,19.05
2018-09-03T20:38:42.278Z,19.01
2018-09-03T20:41:10.850Z,19.00
2018-09-03T20:43:39.314Z,18.97
2018-09-03T20:46:07.985Z,18.97
2018-09-03T20:48:36.573Z,18.97
2018-09-03T20:51:05.776Z,18.99
2018-09-03T20:53:34.363Z,19.04
2018-09-03T20:56:03.297Z,19.13
2018-09-03T20:58:31.889Z,19.22
2018-09-03T21:01:00.629Z,19.22
2018-09-03T21:03:29.285Z,19.18
2018-09-03T21:05:57.988Z,19.08
2018-09-03T21:08:26.674Z,18.98
2018-09-03T21:10:55.148Z,18.95
2018-09-03T21:13:23.804Z,18.90
2018-09-03T21:15:52.854Z,18.89
2018-09-03T21:18:21.365Z,18.89
2018-09-03T21:24:18.003Z,18.85
2018-09-03T21:26:46.596Z,18.84
2018-09-03T21:29:16.004Z,18.84
2018-09-03T21:31:44.491Z,18.81
2018-09-03T21:34:13.549Z,18.79
2018-09-03T21:36:42.573Z,18.77
2018-09-03T21:39:11.295Z,18.74
2018-09-03T21:41:41.004Z,18.70
2018-09-03T21:44:09.908Z,18.66
2018-09-03T21:46:38.552Z,18.66
2018-09-03T21:49:07.146Z,18.65
2018-09-03T21:51:35.660Z,18.63
2018-09-03T21:54:08.266Z,18.60
2018-09-03T21:56:36.886Z,18.60
2018-09-03T21:59:05.458Z,18.58
2018-09-03T22:01:34.044Z,18.55
2018-09-03T22:04:02.572Z,18.53
2018-09-03T22:06:32.168Z,18.53
2018-09-03T22:09:01.438Z,18.53
2018-09-03T22:11:29.913Z,18.52
2018-09-03T22:13:58.466Z,18.54
2018-09-03T22:16:27.019Z,18.53
2018-09-03T22:18:55.631Z,18.55
2018-09-03T22:21:24.207Z,18.55
2018-09-03T22:23:52.804Z,18.57
2018-09-03T22:26:21.384Z,18.54
2018-09-03T22:28:49.990Z,18.52
2018-09-03T22:31:18.552Z,18.51
2018-09-03T22:33:47.193Z,18.49
2018-09-03T22:36:15.705Z,18.42
2018-09-03T22:38:44.505Z,18.40
2018-09-03T22:41:13.081Z,18.39
2018-09-03T22:44:23.324Z,18.41
2018-09-03T22:46:51.858Z,18.41
2018-09-03T22:49:20.420Z,18.43
2018-09-03T22:51:49.123Z,18.44
2018-09-03T22:54:17.683Z,18.43
2018-09-03T22:56:46.420Z,18.38
2018-09-03T22:59:15.115Z,18.35
2018-09-03T23:01:43.683Z,18.28
2018-09-03T23:04:12.116Z,18.18
2018-09-03T23:06:40.594Z,18.11
2018-09-03T23:09:09.069Z,18.04
2018-09-03T23:11:37.545Z,17.97
2018-09-03T23:14:09.673Z,17.90
2018-09-03T23:16:38.446Z,17.81
2018-09-03T23:19:07.148Z,17.76
2018-09-03T23:21:35.693Z,17.69
2018-09-03T23:24:04.327Z,17.63
2018-09-03T23:26:32.835Z,17.57
2018-09-03T23:29:01.345Z,17.53
2018-09-03T23:31:57.350Z,17.48
2018-09-03T23:34:25.894Z,17.37
2018-09-03T23:37:12.756Z,17.27
2018-09-03T23:39:41.160Z,17.16
2018-09-03T23:42:09.620Z,17.10
2018-09-03T23:44:38.098Z,17.04
2018-09-03T23:47:06.701Z,17.00
2018-09-03T23:49:35.181Z,16.97
2018-09-03T23:52:03.768Z,16.87
2018-09-03T23:54:32.280Z,16.78
2018-09-03T23:57:03.292Z,16.71
2018-09-03T23:59:31.940Z,16.66
